Time;durP1;ratioP1;P1;durP2;ratioP2;P2;SDS_P1;SDS_P2;PMS_P1;PMS_P2;Temp;Humidity;BMP_temperature;BMP_pressure;BME280_temperature;BME280_humidity;BME280_pressure;Samples;Min_cycle;Max_cycle;Signal;HPM_P1;HPM_P2
2022/01/23 00:00:01;;;;;;;36.63;26.40;;;;;;;-146.48;100.00;37500.81;5270964;28;20039;-67
2022/01/23 00:02:34;;;;;;;36.33;26.83;;;;;;;-146.48;100.00;37423.09;5301952;28;20025;-67
2022/01/23 00:05:07;;;;;;;36.42;26.70;;;;;;;-146.48;100.00;37391.22;5302024;28;20104;-67
2022/01/23 00:07:40;;;;;;;35.67;25.23;;;;;;;-146.48;100.00;37377.28;5302571;28;20028;-67
2022/01/23 00:10:12;;;;;;;31.77;26.00;;;;;;;-146.48;100.00;37339.44;5301115;28;20032;-67
2022/01/23 00:12:49;;;;;;;35.78;26.05;;;;;;;-146.48;100.00;37389.25;5302759;28;20390;-67
2022/01/23 00:18:10;;;;;;;37.47;26.50;;;;;;;-146.48;100.00;37488.84;5301858;28;20438;-67
2022/01/23 00:20:41;;;;;;;35.10;26.85;;;;;;;-146.48;100.00;37512.75;5302596;28;20028;-67
2022/01/23 00:23:26;;;;;;;33.88;25.17;;;;;;;-146.48;100.00;37480.88;5301184;28;20031;-67
2022/01/23 00:31:40;;;;;;;36.47;25.60;;;;;;;-146.48;100.00;37474.91;5301866;28;20028;-68
2022/01/23 00:34:11;;;;;;;33.33;25.67;;;;;;;-146.48;100.00;37445.03;5301868;28;20031;-67
2022/01/23 00:36:42;;;;;;;33.92;25.52;;;;;;;-146.48;100.00;37454.97;5302282;28;20016;-67
2022/01/23 00:39:14;;;;;;;33.78;25.60;;;;;;;-146.48;100.00;37451.00;5300919;28;20054;-67
2022/01/23 00:41:45;;;;;;;32.85;24.98;;;;;;;-146.48;100.00;37383.25;5302317;28;20043;-67
2022/01/23 00:44:16;;;;;;;40.33;25.88;;;;;;;-146.48;100.00;37427.09;5302970;28;20032;-68
2022/01/23 00:46:50;;;;;;;37.22;25.42;;;;;;;-146.48;100.00;37492.84;5306339;28;20024;-67
2022/01/23 00:49:25;;;;;;;34.80;24.67;;;;;;;-146.48;100.00;37568.53;5305600;28;20035;-67
2022/01/23 00:51:56;;;;;;;33.65;26.02;;;;;;;-146.48;100.00;37574.50;5305446;28;20028;-67
2022/01/23 00:54:27;;;;;;;33.90;25.75;;;;;;;-146.48;100.00;37660.19;5306469;28;20031;-67
2022/01/23 00:56:58;;;;;;;36.05;24.92;;;;;;;-146.48;100.00;37630.28;5305577;28;20027;-67
2022/01/23 00:59:30;;;;;;;37.30;26.05;;;;;;;-146.48;100.00;37642.25;5305273;28;20028;-67
2022/01/23 01:02:01;;;;;;;38.95;25.58;;;;;;;-146.48;100.00;37648.22;5305222;28;20020;-67
2022/01/23 01:04:32;;;;;;;34.40;25.52;;;;;;;-146.48;100.00;37729.91;5306007;28;20027;-68
2022/01/23 01:07:04;;;;;;;35.13;24.70;;;;;;;-146.48;100.00;37803.63;5304460;28;20583;-68
2022/01/23 01:09:35;;;;;;;33.13;26.13;;;;;;;-146.48;100.00;37789.69;5305920;28;20051;-67
2022/01/23 01:12:09;;;;;;;32.00;24.35;;;;;;;-146.48;100.00;37849.47;5304476;28;20032;-68
2022/01/23 01:17:40;;;;;;;35.65;24.48;;;;;;;-146.48;100.00;37757.81;5305526;28;20488;-67
2022/01/23 01:31:40;;;;;;;33.70;25.00;;;;;;;-146.48;100.00;37801.63;5306098;28;20040;-69
2022/01/23 01:34:39;;;;;;;32.78;24.05;;;;;;;-146.48;100.00;37793.66;5304223;28;20129;-68
2022/01/23 01:37:04;;;;;;;38.22;26.00;;;;;;;-146.48;100.00;37815.59;5304430;28;20135;-68
2022/01/23 01:39:35;;;;;;;30.52;23.52;;;;;;;-146.48;100.00;37807.63;5305071;28;20395;-68
2022/01/23 01:42:07;;;;;;;33.53;25.17;;;;;;;-146.48;100.00;37785.69;5303622;28;20032;-68
2022/01/23 01:44:39;;;;;;;32.90;24.92;;;;;;;-146.48;100.00;37855.44;5305100;28;20384;-68
2022/01/23 01:47:10;;;;;;;29.70;24.02;;;;;;;-146.48;100.00;37837.50;5303626;28;20031;-68
2022/01/23 01:49:42;;;;;;;31.90;23.67;;;;;;;-146.48;100.00;37819.56;5304947;28;20024;-68
2022/01/23 01:52:13;;;;;;;35.10;24.30;;;;;;;-146.48;100.00;37877.34;5304667;28;20047;-68
2022/01/23 01:54:47;;;;;;;35.67;25.88;;;;;;;-146.48;100.00;37781.72;5303606;28;20031;-68
2022/01/23 01:57:18;;;;;;;36.63;24.85;;;;;;;-146.48;100.00;37845.47;5304370;28;20040;-67
2022/01/23 02:00:11;;;;;;;32.13;24.83;;;;;;;-146.48;100.00;37907.25;5304729;28;20039;-68
2022/01/23 02:03:17;;;;;;;31.05;24.38;;;;;;;-146.48;100.00;37901.25;5303726;28;20028;-68
2022/01/23 02:08:28;;;;;;;33.55;22.70;;;;;;;-146.48;100.00;37887.31;5303731;28;20036;-68
2022/01/23 02:11:13;;;;;;;31.70;23.58;;;;;;;-146.48;100.00;37943.09;5303886;28;20067;-68
2022/01/23 02:13:51;;;;;;;33.40;23.15;;;;;;;-146.48;100.00;37929.16;5304704;28;20050;-68
2022/01/23 02:55:09;;;;;;;33.83;22.40;;;;;;;-146.48;100.00;37773.75;5303683;28;20066;-68
2022/01/23 03:00:19;;;;;;;31.63;21.90;;;;;;;-146.48;100.00;37823.56;5302773;28;20036;-68
2022/01/23 03:02:53;;;;;;;33.97;22.58;;;;;;;-146.48;100.00;37869.38;5299242;28;20024;-67
2022/01/23 03:08:19;;;;;;;34.22;22.85;;;;;;;-146.48;100.00;37793.66;5301565;28;20040;-68
2022/01/23 03:11:07;;;;;;;35.75;23.38;;;;;;;-146.48;100.00;37837.50;5302820;28;20084;-67
2022/01/23 03:13:55;;;;;;;31.73;22.63;;;;;;;-146.48;100.00;37708.00;5302704;28;20051;-67
2022/01/23 03:26:08;;;;;;;29.90;23.00;;;;;;;-146.48;100.00;37787.69;5302353;28;20036;-67
2022/01/23 03:30:49;;;;;;;32.30;23.08;;;;;;;-146.48;100.00;37735.88;5303298;28;20032;-67
2022/01/23 03:33:21;;;;;;;31.58;21.98;;;;;;;-146.48;100.00;37753.81;5301909;28;20024;-68
2022/01/23 03:35:52;;;;;;;29.48;21.67;;;;;;;-146.48;100.00;37839.50;5302420;28;20020;-68
2022/01/23 03:38:23;;;;;;;35.10;22.70;;;;;;;-146.48;100.00;37823.56;5302355;28;20028;-67
2022/01/23 03:40:55;;;;;;;34.25;22.65;;;;;;;-146.48;100.00;37873.38;5301755;28;20463;-67
2022/01/23 03:43:29;;;;;;;33.15;24.85;;;;;;;-146.48;100.00;37871.38;5302583;28;20081;-67
2022/01/23 03:51:16;;;;;;;32.50;24.08;;;;;;;-146.48;100.00;37919.19;5302317;28;20036;-67
2022/01/23 03:53:48;;;;;;;33.85;23.60;;;;;;;-146.48;100.00;37933.13;5301925;28;20039;-67
2022/01/23 03:56:22;;;;;;;28.85;22.70;;;;;;;-146.48;100.00;37877.34;5301995;28;20394;-68
2022/01/23 03:58:53;;;;;;;34.00;24.33;;;;;;;-146.48;100.00;37811.59;5302078;28;20031;-68
2022/01/23 04:01:25;;;;;;;33.35;25.08;;;;;;;-146.48;100.00;37865.41;5301237;28;20032;-68
2022/01/23 04:03:58;;;;;;;37.95;25.90;;;;;;;-146.48;100.00;37829.53;5302086;28;20032;-68
2022/01/23 04:06:29;;;;;;;35.03;25.08;;;;;;;-146.48;100.00;37867.38;5302341;28;20046;-68
2022/01/23 04:09:01;;;;;;;33.72;25.52;;;;;;;-146.48;100.00;37855.44;5300992;28;20036;-68
2022/01/23 04:11:32;;;;;;;36.20;23.98;;;;;;;-146.48;100.00;37925.16;5302351;28;20024;-68
2022/01/23 04:14:08;;;;;;;35.08;26.05;;;;;;;-146.48;100.00;37973.00;5301895;28;20023;-67
2022/01/23 04:17:05;;;;;;;37.83;25.40;;;;;;;-146.48;100.00;37909.22;5301707;28;20066;-67
2022/01/23 04:19:44;;;;;;;35.65;24.38;;;;;;;-146.48;100.00;37941.09;5306443;28;20123;-68
2022/01/23 04:33:46;;;;;;;40.33;27.08;;;;;;;-146.48;100.00;38048.69;5306667;28;20032;-68
2022/01/23 04:59:34;;;;;;;39.75;26.85;;;;;;;-146.48;100.00;38180.22;5304993;28;20024;-67
2022/01/23 05:04:29;;;;;;;40.38;28.05;;;;;;;-146.48;100.00;38345.59;5304790;28;20491;-67
2022/01/23 05:07:04;;;;;;;40.20;27.40;;;;;;;-146.48;100.00;38399.41;5305090;28;20043;-67
2022/01/23 05:09:36;;;;;;;43.08;27.77;;;;;;;-146.48;100.00;38415.34;5305716;28;20032;-68
2022/01/23 05:12:10;;;;;;;41.33;27.55;;;;;;;-146.48;100.00;38443.25;5304250;28;20028;-67
2022/01/23 05:14:45;;;;;;;41.45;27.83;;;;;;;-146.48;100.00;38421.31;5305688;28;20027;-67
2022/01/23 05:17:18;;;;;;;41.80;28.38;;;;;;;-146.48;100.00;38427.28;5305100;28;20028;-67
2022/01/23 05:19:49;;;;;;;36.78;27.48;;;;;;;-146.48;100.00;38447.22;5304796;28;20031;-67
2022/01/23 05:25:06;;;;;;;37.28;26.92;;;;;;;-146.48;100.00;38479.09;5305494;28;20032;-68
2022/01/23 05:27:37;;;;;;;40.58;27.20;;;;;;;-146.48;100.00;38503.03;5305487;28;20032;-67
2022/01/23 05:30:09;;;;;;;35.40;26.70;;;;;;;-146.48;100.00;38530.91;5303882;28;20020;-67
2022/01/23 05:32:42;;;;;;;39.95;28.20;;;;;;;-146.48;100.00;38459.19;5304547;28;20020;-68
2022/01/23 05:35:19;;;;;;;37.13;26.70;;;;;;;-146.48;100.00;38526.94;5304855;28;20024;-67
2022/01/23 05:37:51;;;;;;;34.70;26.35;;;;;;;-146.48;100.00;38550.84;5305471;28;20421;-67
2022/01/23 05:40:25;;;;;;;40.17;28.05;;;;;;;-146.48;100.00;38558.81;5303797;28;20057;-67
2022/01/23 05:42:56;;;;;;;40.17;28.15;;;;;;;-146.48;100.00;38483.09;5304598;28;20089;-67
2022/01/23 05:45:28;;;;;;;43.75;29.65;;;;;;;-146.48;100.00;38584.72;5304990;28;20028;-67
2022/01/23 05:47:59;;;;;;;41.33;28.75;;;;;;;-146.48;100.00;38568.78;5303731;28;20035;-67
2022/01/23 05:50:31;;;;;;;41.33;28.08;;;;;;;-146.48;100.00;38646.50;5305064;28;20058;-67
2022/01/23 05:53:02;;;;;;;40.13;27.17;;;;;;;-146.48;100.00;38630.56;5304400;28;20026;-67
2022/01/23 05:55:33;;;;;;;35.97;26.98;;;;;;;-146.48;100.00;38660.44;5304103;28;20051;-68
2022/01/23 05:58:05;;;;;;;37.47;26.70;;;;;;;-146.48;100.00;38612.63;5304227;28;20428;-68
2022/01/23 06:00:36;;;;;;;40.10;27.40;;;;;;;-146.48;100.00;38646.50;5304103;28;20839;-69
2022/01/23 06:03:07;;;;;;;38.40;27.75;;;;;;;-146.48;100.00;38592.69;5304078;28;20024;-67
2022/01/23 06:05:39;;;;;;;39.80;26.77;;;;;;;-146.48;100.00;38660.44;5304410;28;20035;-68
2022/01/23 06:08:10;;;;;;;42.88;28.13;;;;;;;-146.48;100.00;38628.56;5303114;28;20024;-68
2022/01/23 06:10:55;;;;;;;37.85;27.70;;;;;;;-146.48;100.00;38616.59;5304670;28;20116;-68
2022/01/23 06:13:27;;;;;;;39.88;27.60;;;;;;;-146.48;100.00;38592.69;5304925;28;20032;-68
2022/01/23 06:15:59;;;;;;;39.55;29.63;;;;;;;-146.48;100.00;38505.00;5303020;28;20035;-68
2022/01/23 06:18:30;;;;;;;41.42;28.77;;;;;;;-146.48;100.00;38550.84;5304323;28;20023;-68
2022/01/23 06:21:03;;;;;;;41.00;29.00;;;;;;;-146.48;100.00;38574.75;5303763;28;20162;-67
2022/01/23 06:23:34;;;;;;;46.78;28.15;;;;;;;-146.48;100.00;38568.78;5303701;28;20028;-67
2022/01/23 06:26:06;;;;;;;39.45;28.00;;;;;;;-146.48;100.00;38592.69;5303832;28;20107;-67
2022/01/23 06:28:55;;;;;;;42.22;28.70;;;;;;;-146.48;100.00;38584.72;5303562;28;20046;-66
2022/01/23 06:31:26;;;;;;;;;;;;;;;-146.48;100.00;38626.56;5304758;28;20020;-67
2022/01/23 06:33:58;;;;;;;40.13;27.90;;;;;;;-146.48;100.00;38540.88;5303411;28;19934;-67
2022/01/23 06:36:29;;;;;;;42.88;28.55;;;;;;;-146.48;100.00;38522.94;5303446;28;20099;-68
2022/01/23 06:39:03;;;;;;;41.53;29.50;;;;;;;-146.48;100.00;38558.81;5303527;28;20099;-68
2022/01/23 06:41:34;;;;;;;39.20;28.40;;;;;;;-146.48;100.00;38584.72;5303920;28;20020;-68
2022/01/23 06:44:06;;;;;;;40.15;27.92;;;;;;;-146.48;100.00;38650.50;5302753;28;20487;-68
2022/01/23 06:46:39;;;;;;;39.65;28.75;;;;;;;-146.48;100.00;38634.53;5304007;28;20024;-67
2022/01/23 06:49:11;;;;;;;42.72;28.85;;;;;;;-146.48;100.00;38606.66;5303140;28;20028;-68
2022/01/23 06:51:43;;;;;;;42.17;29.63;;;;;;;-146.48;100.00;38598.69;5302930;28;20042;-67
2022/01/23 06:54:14;;;;;;;39.38;29.48;;;;;;;-146.48;100.00;38628.56;5302951;28;20040;-68
2022/01/23 06:56:46;;;;;;;41.15;28.98;;;;;;;-146.48;100.00;38636.53;5302980;28;20027;-68
2022/01/23 06:59:17;;;;;;;41.90;29.75;;;;;;;-146.48;100.00;38714.25;5303218;28;20035;-68
2022/01/23 07:01:48;;;;;;;41.00;29.15;;;;;;;-146.48;100.00;38680.38;5303533;28;20036;-68
2022/01/23 07:04:20;;;;;;;42.00;28.90;;;;;;;-146.48;100.00;38730.19;5302080;28;20082;-68
2022/01/23 07:06:51;;;;;;;41.92;29.35;;;;;;;-146.48;100.00;38744.16;5303289;28;20079;-68
2022/01/23 07:09:23;;;;;;;41.53;29.67;;;;;;;-146.48;100.00;38807.91;5302661;28;20028;-67
2022/01/23 07:11:54;;;;;;;42.65;30.00;;;;;;;-146.48;100.00;38756.09;5302378;28;20442;-67
2022/01/23 07:14:25;;;;;;;43.20;29.92;;;;;;;-146.48;100.00;38724.22;5303102;28;20032;-68
2022/01/23 07:16:57;;;;;;;42.38;28.45;;;;;;;-146.48;100.00;38676.41;5302547;28;20700;-67
2022/01/23 07:19:28;;;;;;;42.20;29.02;;;;;;;-146.48;100.00;38692.34;5302442;28;20031;-67
2022/01/23 07:21:59;;;;;;;43.53;30.00;;;;;;;-146.48;100.00;38708.28;5302436;28;20036;-67
2022/01/23 07:24:31;;;;;;;42.75;27.88;;;;;;;-146.48;100.00;38646.50;5303132;28;20024;-67
2022/01/23 07:27:12;;;;;;;46.67;29.50;;;;;;;-146.48;100.00;38644.50;5301741;28;20020;-67
2022/01/23 07:29:44;;;;;;;41.00;28.70;;;;;;;-146.48;100.00;38594.69;5302874;28;20383;-67
2022/01/23 07:32:15;;;;;;;41.50;28.63;;;;;;;-146.48;100.00;38359.53;5301474;28;20103;-67
2022/01/23 07:34:46;;;;;;;45.53;29.35;;;;;;;-146.48;100.00;38371.50;5303017;28;20462;-67
2022/01/23 07:37:18;;;;;;;46.80;31.38;;;;;;;-146.48;100.00;38347.59;5302259;28;20020;-66
2022/01/23 07:39:49;;;;;;;42.40;29.05;;;;;;;-146.48;100.00;38365.53;5301844;28;20031;-66
2022/01/23 07:42:20;;;;;;;40.45;28.80;;;;;;;-146.48;100.00;38409.38;5302276;28;20115;-68
2022/01/23 07:44:52;;;;;;;46.40;29.95;;;;;;;-146.48;100.00;38391.44;5302924;28;20023;-67
2022/01/23 07:47:23;;;;;;;44.55;30.38;;;;;;;-146.48;100.00;38347.59;5301629;28;20053;-67
2022/01/23 07:49:55;;;;;;;41.17;30.58;;;;;;;-146.48;100.00;38367.53;5302353;28;20028;-67
2022/01/23 07:52:30;;;;;;;45.00;30.50;;;;;;;-146.48;100.00;38483.09;5301886;28;20039;-66
2022/01/23 07:55:07;;;;;;;44.40;30.50;;;;;;;-146.48;100.00;38574.75;5300641;28;20497;-67
2022/01/23 07:57:42;;;;;;;47.35;31.98;;;;;;;-146.48;100.00;38554.84;5301310;28;20043;-67
2022/01/23 08:00:14;;;;;;;48.88;31.13;;;;;;;-146.48;100.00;38524.94;5300039;28;20032;-69
2022/01/23 08:02:45;;;;;;;44.85;29.83;;;;;;;-146.48;100.00;38618.59;5301184;28;20020;-69
2022/01/23 08:05:17;;;;;;;47.70;31.65;;;;;;;-146.48;100.00;38698.31;5300870;28;20036;-67
2022/01/23 08:07:48;;;;;;;42.83;31.27;;;;;;;-146.48;100.00;38658.47;5300297;28;20052;-67
2022/01/23 08:10:19;;;;;;;47.08;30.33;;;;;;;-146.48;100.00;38638.53;5300126;28;20028;-67
2022/01/23 08:12:51;;;;;;;43.85;30.55;;;;;;;-146.48;100.00;38650.50;5301301;28;20375;-67
2022/01/23 08:15:22;;;;;;;47.72;32.17;;;;;;;-146.48;100.00;38536.91;5299316;28;20032;-67
2022/01/23 08:17:53;;;;;;;44.97;30.83;;;;;;;-146.48;100.00;38564.78;5301189;28;20125;-66
2022/01/23 08:20:24;;;;;;;45.20;30.40;;;;;;;-146.48;100.00;38634.53;5300941;28;20032;-67
2022/01/23 08:22:58;;;;;;;42.75;29.63;;;;;;;-146.48;100.00;38634.53;5299768;28;20024;-67
2022/01/23 08:25:30;;;;;;;44.42;29.95;;;;;;;-146.48;100.00;38696.31;5300910;28;20099;-67
2022/01/23 08:28:02;;;;;;;44.47;31.17;;;;;;;-146.48;100.00;38676.41;5299616;28;20036;-67
2022/01/23 08:30:33;;;;;;;41.28;30.48;;;;;;;-146.48;100.00;38692.34;5301173;28;20228;-67
2022/01/23 08:33:05;;;;;;;46.65;30.55;;;;;;;-146.48;100.00;38688.34;5300593;28;20070;-67
2022/01/23 08:35:36;;;;;;;47.00;31.08;;;;;;;-146.48;100.00;38752.13;5299784;28;20111;-67
2022/01/23 08:38:09;;;;;;;45.45;31.48;;;;;;;-146.48;100.00;38686.34;5300137;28;20028;-67
2022/01/23 08:43:17;;;;;;;42.65;30.23;;;;;;;-146.48;100.00;38562.81;5299792;28;20119;-69
2022/01/23 08:45:50;;;;;;;48.53;32.13;;;;;;;-146.48;100.00;38540.88;5300771;28;20059;-67
2022/01/23 08:48:21;;;;;;;46.42;31.42;;;;;;;-146.48;100.00;38489.06;5299695;28;20058;-66
2022/01/23 08:50:53;;;;;;;46.88;30.83;;;;;;;-146.48;100.00;38534.91;5299603;28;20150;-68
2022/01/23 08:53:25;;;;;;;45.95;30.98;;;;;;;-146.48;100.00;38530.91;5300733;28;20024;-66
2022/01/23 08:55:57;;;;;;;45.28;30.35;;;;;;;-146.48;100.00;38570.78;5300020;28;20028;-67
2022/01/23 08:58:28;;;;;;;42.60;30.42;;;;;;;-146.48;100.00;38511.00;5300075;28;20443;-67
2022/01/23 09:00:59;;;;;;;40.63;29.42;;;;;;;-146.48;100.00;38616.59;5299501;28;20058;-67
2022/01/23 09:03:31;;;;;;;44.85;31.42;;;;;;;-146.48;100.00;38584.72;5299901;28;20028;-67
2022/01/23 09:06:04;;;;;;;46.00;31.88;;;;;;;-146.48;100.00;38479.09;5303110;28;20048;-66
2022/01/23 09:08:38;;;;;;;43.90;31.00;;;;;;;-146.48;100.00;38501.03;5304623;28;20038;-68
2022/01/23 09:11:23;;;;;;;46.25;30.95;;;;;;;-146.48;100.00;38518.97;5303080;28;20047;-67
2022/01/23 09:14:07;;;;;;;46.67;30.88;;;;;;;-146.48;100.00;38483.09;5304221;28;20084;-67
2022/01/23 09:16:41;;;;;;;44.05;30.08;;;;;;;-146.48;100.00;38534.91;5304752;28;20540;-67
2022/01/23 09:19:13;;;;;;;41.38;30.15;;;;;;;-146.48;100.00;38467.16;5302889;28;20471;-67
2022/01/23 09:21:45;;;;;;;47.90;30.30;;;;;;;-146.48;100.00;38369.50;5304198;28;20078;-67
2022/01/23 09:24:18;;;;;;;42.97;30.35;;;;;;;-146.48;100.00;38293.78;5303070;28;20093;-67
2022/01/23 09:26:55;;;;;;;40.28;28.20;;;;;;;-146.48;100.00;38319.69;5303571;28;20028;-67
2022/01/23 09:29:35;;;;;;;41.85;29.30;;;;;;;-146.48;100.00;38303.75;5303959;28;20088;-67
2022/01/23 09:32:10;;;;;;;40.03;28.98;;;;;;;-146.48;100.00;38287.81;5302927;28;20028;-67
2022/01/23 09:34:43;;;;;;;43.63;29.00;;;;;;;-146.48;100.00;38335.63;5304080;28;20042;-68
2022/01/23 09:37:16;;;;;;;41.65;29.90;;;;;;;-146.48;100.00;38295.78;5303157;28;20053;-68
2022/01/23 09:39:50;;;;;;;41.53;29.48;;;;;;;-146.48;100.00;38295.78;5302824;28;20097;-69
2022/01/23 09:42:44;;;;;;;40.50;28.25;;;;;;;-146.48;100.00;38251.94;5303380;28;20373;-69
2022/01/23 09:45:15;;;;;;;47.20;30.13;;;;;;;-146.48;100.00;38176.22;5303312;28;20020;-66
2022/01/23 09:47:46;;;;;;;42.35;29.30;;;;;;;-146.48;100.00;38120.44;5303284;28;20376;-66
2022/01/23 09:50:18;;;;;;;42.78;29.25;;;;;;;-146.48;100.00;37957.06;5303036;28;20027;-69
2022/01/23 09:52:53;;;;;;;41.92;29.42;;;;;;;-146.48;100.00;37913.22;5302446;28;20375;-67
2022/01/23 09:55:26;;;;;;;39.05;27.40;;;;;;;-146.48;100.00;37843.47;5303238;28;20017;-67
2022/01/23 09:57:58;;;;;;;43.17;29.08;;;;;;;-146.48;100.00;37737.88;5303187;28;20085;-68
2022/01/23 10:00:30;;;;;;;40.65;28.95;;;;;;;-146.48;100.00;37769.75;5302959;28;20032;-68
2022/01/23 10:03:01;;;;;;;43.65;28.85;;;;;;;-146.48;100.00;37769.75;5303039;28;20051;-68
2022/01/23 10:05:33;;;;;;;43.22;29.25;;;;;;;-146.48;100.00;37741.88;5303193;28;20043;-68
2022/01/23 10:08:07;;;;;;;44.03;29.98;;;;;;;-146.48;100.00;37650.22;5301668;28;20166;-68
2022/01/23 10:10:40;;;;;;;39.90;29.67;;;;;;;-146.48;100.00;37556.59;5303729;28;20094;-68
2022/01/23 10:13:13;;;;;;;42.95;30.25;;;;;;;-146.48;100.00;37574.50;5302517;28;20511;-68
2022/01/23 10:15:44;;;;;;;40.47;29.63;;;;;;;-146.48;100.00;37586.47;5301939;28;20027;-69
2022/01/23 10:18:18;;;;;;;41.70;29.92;;;;;;;-146.48;100.00;37421.13;5302605;28;20471;-68
2022/01/23 10:20:49;;;;;;;42.35;29.27;;;;;;;-146.48;100.00;37319.50;5301768;28;20028;-68
2022/01/23 10:23:21;;;;;;;43.00;30.52;;;;;;;-146.48;100.00;37249.78;5302672;28;20522;-68
2022/01/23 10:25:53;;;;;;;40.30;29.48;;;;;;;-146.48;100.00;37182.06;5302961;28;20028;-68
2022/01/23 10:28:28;;;;;;;37.55;28.10;;;;;;;-146.48;100.00;37070.50;5301904;28;20062;-68
2022/01/23 10:31:02;;;;;;;39.60;27.98;;;;;;;-146.48;100.00;37076.47;5302469;28;20032;-69
2022/01/23 10:33:38;;;;;;;39.80;30.35;;;;;;;-146.48;100.00;36984.84;5302699;28;20028;-68
2022/01/23 10:36:14;;;;;;;38.80;28.25;;;;;;;-146.48;100.00;36935.03;5301519;28;20024;-68
2022/01/23 10:38:58;;;;;;;40.67;29.05;;;;;;;-146.48;100.00;36827.47;5302801;28;20028;-68
2022/01/23 10:49:51;;;;;;;38.97;27.77;;;;;;;-146.48;100.00;36359.41;5302048;28;20032;-68
2022/01/23 10:52:28;;;;;;;40.47;28.30;;;;;;;-146.48;100.00;36249.88;5302088;28;20024;-68
2022/01/23 10:55:21;;;;;;;38.08;26.23;;;;;;;-146.48;100.00;36239.91;5302004;28;20024;-68
2022/01/23 10:57:57;;;;;;;35.33;25.52;;;;;;;-146.48;100.00;36174.19;5301357;28;20028;-69
2022/01/23 11:00:30;;;;;;;40.55;28.00;;;;;;;-146.48;100.00;36108.47;5302317;28;20056;-67
2022/01/23 11:03:22;;;;;;;42.15;29.83;;;;;;;-146.48;100.00;36016.88;5295898;28;20650;-67
2022/01/23 11:05:53;;;;;;;39.67;28.48;;;;;;;-146.48;100.00;35941.19;5297599;28;20094;-68
2022/01/23 11:08:27;;;;;;;44.95;31.67;;;;;;;-146.48;100.00;35869.50;5301020;28;20029;-68
2022/01/23 11:11:06;;;;;;;39.58;28.52;;;;;;;-146.48;100.00;35690.28;5299999;28;20032;-68
2022/01/23 11:17:39;;;;;;;37.13;26.00;;;;;;;-146.48;100.00;35604.66;5300926;28;20719;-67
2022/01/23 11:19:43;;;;;;;37.65;26.33;;;;;;;-146.48;100.00;35568.81;5287460;28;20047;-68
2022/01/23 11:22:16;;;;;;;35.42;25.73;;;;;;;-146.48;100.00;35582.75;5300428;28;20111;-69
2022/01/23 11:24:48;;;;;;;36.40;26.02;;;;;;;-146.48;100.00;35397.56;5299883;28;20047;-67
2022/01/23 11:27:22;;;;;;;35.47;25.10;;;;;;;-146.48;100.00;35274.13;5300091;28;20460;-67
2022/01/23 11:30:09;;;;;;;35.67;25.25;;;;;;;-146.48;100.00;35280.09;5300500;28;20024;-67
2022/01/23 11:32:42;;;;;;;32.28;23.65;;;;;;;-146.48;100.00;35172.56;5300573;28;20024;-68
2022/01/23 11:35:16;;;;;;;37.33;25.35;;;;;;;-146.48;100.00;35061.06;5300076;28;20028;-68
2022/01/23 11:37:51;;;;;;;32.15;23.10;;;;;;;-146.48;100.00;34927.69;5301161;28;20038;-68
2022/01/23 11:40:40;;;;;;;35.58;25.08;;;;;;;-146.48;100.00;34901.81;5300572;28;20490;-68
2022/01/23 11:54:50;;;;;;;34.28;23.80;;;;;;;-146.48;100.00;34485.72;5301621;28;20072;-67
2022/01/23 11:57:33;;;;;;;33.55;23.35;;;;;;;-146.48;100.00;34471.78;5300368;28;20027;-69
2022/01/23 12:00:08;;;;;;;29.45;23.13;;;;;;;-146.48;100.00;34463.81;5300022;28;20032;-69
2022/01/23 12:02:42;;;;;;;30.80;23.40;;;;;;;-146.48;100.00;34384.19;5301209;28;20086;-68
2022/01/23 12:05:15;;;;;;;36.08;25.95;;;;;;;-146.48;100.00;34246.84;5300877;28;20073;-68
2022/01/23 12:08:16;;;;;;;35.20;26.00;;;;;;;-146.48;100.00;34145.31;5300518;28;20070;-70
2022/01/23 12:16:59;;;;;;;34.28;24.60;;;;;;;-146.48;100.00;34139.34;5280158;28;20024;-69
2022/01/23 12:19:53;;;;;;;32.08;24.00;;;;;;;-146.48;100.00;34000.03;5288488;28;20116;-67
2022/01/23 12:22:26;;;;;;;33.17;23.10;;;;;;;-146.48;100.00;34006.00;5299651;28;20055;-67
2022/01/23 12:25:04;;;;;;;30.83;24.00;;;;;;;-146.48;100.00;34053.75;5300552;28;20035;-68
2022/01/23 12:27:36;;;;;;;33.80;25.25;;;;;;;-146.48;100.00;34093.56;5300500;28;20039;-68
2022/01/23 12:30:12;;;;;;;35.92;25.77;;;;;;;-146.48;100.00;34111.50;5300746;28;20483;-68
2022/01/23 12:32:44;;;;;;;36.03;25.63;;;;;;;-146.48;100.00;33988.06;5301327;28;20433;-68
2022/01/23 12:35:15;;;;;;;34.88;25.77;;;;;;;-146.48;100.00;33964.19;5299419;28;20035;-68
2022/01/23 12:37:56;;;;;;;31.95;23.42;;;;;;;-146.48;100.00;33994.03;5300937;28;20039;-68
2022/01/23 12:40:34;;;;;;;30.88;23.17;;;;;;;-146.48;100.00;33926.38;5305194;28;20050;-67
2022/01/23 12:43:21;;;;;;;31.67;23.50;;;;;;;-146.48;100.00;33878.59;5303832;28;20027;-68
2022/01/23 12:46:01;;;;;;;29.10;22.58;;;;;;;-146.48;100.00;33858.69;5304919;28;20085;-68
2022/01/23 12:48:37;;;;;;;33.00;22.80;;;;;;;-146.48;100.00;33808.94;5304085;28;20534;-68
2022/01/23 12:51:30;;;;;;;33.13;23.75;;;;;;;-146.48;100.00;33743.25;5304711;28;20032;-69
2022/01/23 12:54:01;;;;;;;28.17;22.02;;;;;;;-146.48;100.00;33697.47;5304542;28;20061;-69
2022/01/23 12:56:44;;;;;;;35.97;24.52;;;;;;;-146.48;100.00;33667.63;5304113;28;20035;-68
2022/01/23 12:59:24;;;;;;;31.25;22.52;;;;;;;-146.48;100.00;33665.63;5304551;28;20074;-68
2022/01/23 13:02:01;;;;;;;30.98;23.23;;;;;;;-146.48;100.00;33689.53;5303929;28;20106;-69
2022/01/23 13:04:34;;;;;;;33.08;23.98;;;;;;;-146.48;100.00;33669.63;5304211;28;20028;-68
2022/01/23 13:07:13;;;;;;;28.23;21.70;;;;;;;-146.48;100.00;33635.78;5303977;28;20066;-68
2022/01/23 13:29:55;;;;;;;33.22;23.38;;;;;;;-146.48;100.00;33285.50;5303672;28;20403;-69
2022/01/23 13:32:37;;;;;;;35.80;25.45;;;;;;;-146.48;100.00;33295.47;5302852;28;20039;-68
2022/01/23 13:35:14;;;;;;;35.85;26.40;;;;;;;-146.48;100.00;33341.22;5303863;28;20024;-70
2022/01/23 13:37:51;;;;;;;34.53;26.23;;;;;;;-146.48;100.00;33349.19;5303455;28;20105;-69
2022/01/23 13:40:29;;;;;;;38.97;27.95;;;;;;;-146.48;100.00;33369.09;5302926;28;20589;-67
2022/01/23 14:02:37;;;;;;;38.58;27.73;;;;;;;-146.48;100.00;33500.44;5303634;28;20032;-68
2022/01/23 14:05:17;;;;;;;42.60;28.30;;;;;;;-146.48;100.00;33426.81;5302960;28;20032;-68
2022/01/23 14:07:51;;;;;;;38.55;27.85;;;;;;;-146.48;100.00;33363.13;5302092;28;20067;-68
2022/01/23 14:10:22;;;;;;;41.38;27.75;;;;;;;-146.48;100.00;33381.03;5303008;28;20032;-69
2022/01/23 14:13:03;;;;;;;38.35;27.63;;;;;;;-146.48;100.00;33472.59;5302404;28;20028;-71
2022/01/23 14:15:42;;;;;;;38.33;27.08;;;;;;;-146.48;100.00;33526.31;5303227;28;20111;-67
2022/01/23 14:18:20;;;;;;;37.47;27.65;;;;;;;-146.48;100.00;33615.88;5303073;28;20020;-68
2022/01/23 14:21:04;;;;;;;35.05;26.58;;;;;;;-146.48;100.00;33707.44;5301956;28;20035;-68
2022/01/23 14:23:36;;;;;;;36.13;26.27;;;;;;;-146.48;100.00;33709.41;5302922;28;20428;-68
2022/01/23 14:26:10;;;;;;;36.58;25.65;;;;;;;-146.48;100.00;33659.66;5302458;28;20066;-68
2022/01/23 14:28:46;;;;;;;36.88;26.38;;;;;;;-146.48;100.00;33574.09;5302445;28;20099;-68
2022/01/23 14:31:25;;;;;;;40.20;28.23;;;;;;;-146.48;100.00;33548.22;5302593;28;20063;-66
2022/01/23 14:33:59;;;;;;;37.72;27.60;;;;;;;-146.48;100.00;33448.69;5301432;28;20032;-69
2022/01/23 14:36:33;;;;;;;44.47;29.58;;;;;;;-146.48;100.00;33570.09;5303970;28;20095;-68
2022/01/23 14:39:12;;;;;;;38.60;28.27;;;;;;;-146.48;100.00;33685.53;5303558;28;20020;-68
2022/01/23 14:41:45;;;;;;;40.97;27.98;;;;;;;-146.48;100.00;33759.19;5303050;28;20060;-68
2022/01/23 14:44:20;;;;;;;38.25;28.88;;;;;;;-146.48;100.00;33828.84;5303500;28;20016;-67